Time;durP1;ratioP1;P1;durP2;ratioP2;P2;SDS_P1;SDS_P2;PMS_P1;PMS_P2;Temp;Humidity;BMP_temperature;BMP_pressure;BME280_temperature;BME280_humidity;BME280_pressure;Samples;Min_cycle;Max_cycle;Signal;HPM_P1;HPM_P2
2022/01/29 00:00:55;;;;;;;31.27;7.78;;;;;;;;;;5112658;28;20044;-76
2022/01/29 00:03:23;;;;;;;30.05;7.07;;;7.30;99.90;;;;;;5112600;28;20039;-76
2022/01/29 00:05:49;;;;;;;31.85;7.55;;;7.70;99.90;;;;;;5112762;28;20433;-76
2022/01/29 00:08:16;;;;;;;25.45;6.53;;;;;;;;;;5095878;28;20047;-76
2022/01/29 00:10:43;;;;;;;25.52;6.63;;;;;;;;;;5112507;28;20036;-76
2022/01/29 00:13:10;;;;;;;35.78;7.10;;;;;;;;;;5112568;28;20039;-76
2022/01/29 00:15:36;;;;;;;24.27;6.32;;;;;;;;;;5112479;28;20176;-76
2022/01/29 00:18:02;;;;;;;36.53;7.82;;;;;;;;;;5112376;28;20043;-76
2022/01/29 00:20:29;;;;;;;29.90;6.80;;;;;;;;;;5112428;28;20043;-76
2022/01/29 00:22:55;;;;;;;23.15;7.57;;;;;;;;;;5112409;28;20124;-76
2022/01/29 00:25:21;;;;;;;21.55;6.72;;;;;;;;;;5112386;28;20040;-76
2022/01/29 00:27:47;;;;;;;28.17;6.85;;;;;;;;;;5112307;28;20048;-76
2022/01/29 00:30:17;;;;;;;28.95;7.28;;;;;;;;;;5112255;28;20552;-76
2022/01/29 00:32:43;;;;;;;26.75;7.00;;;;;;;;;;5112380;28;20102;-76
2022/01/29 00:35:09;;;;;;;34.13;7.45;;;;;;;;;;5095347;28;20040;-76
2022/01/29 00:37:36;;;;;;;22.08;6.50;;;;;;;;;;5095420;28;20119;-76
2022/01/29 00:40:02;;;;;;;25.05;7.18;;;;;;;;;;5112664;28;20044;-75
2022/01/29 00:42:28;;;;;;;40.45;7.78;;;8.00;99.90;;;;;;5095299;28;20036;-76
2022/01/29 00:44:54;;;;;;;26.92;7.68;;;;;;;;;;5116301;28;20043;-76
2022/01/29 00:47:20;;;;;;;25.83;7.00;;;7.00;99.90;;;;;;5116171;28;20059;-75
2022/01/29 00:49:46;;;;;;;31.40;7.68;;;;;;;;;;5116181;28;20044;-76
2022/01/29 00:52:12;;;;;;;27.70;6.53;;;;;;;;;;5099271;28;20562;-76
2022/01/29 00:54:38;;;;;;;29.55;7.25;;;7.40;99.90;;;;;;5099203;28;20039;-76
2022/01/29 00:57:05;;;;;;;22.65;6.30;;;;;;;;;;5099868;28;20403;-76
2022/01/29 00:59:32;;;;;;;28.45;6.80;;;;;;;;;;5115954;28;20596;-76
2022/01/29 01:01:58;;;;;;;28.02;7.47;;;;;;;;;;5098916;28;20400;-76
2022/01/29 01:04:24;;;;;;;30.60;7.22;;;;;;;;;;5098908;28;20039;-75
2022/01/29 01:06:50;;;;;;;26.23;7.38;;;;;;;;;;5116016;28;20043;-75
2022/01/29 01:09:16;;;;;;;28.92;7.68;;;;;;;;;;5098886;28;20088;-76
2022/01/29 01:11:42;;;;;;;35.38;7.90;;;;;;;;;;5098727;28;20170;-76
2022/01/29 01:14:09;;;;;;;19.08;7.65;;;;;;;;;;5115652;28;20054;-76
2022/01/29 01:16:35;;;;;;;29.67;7.90;;;;;;;;;;5115999;28;20047;-76
2022/01/29 01:19:01;;;;;;;31.80;8.80;;;;;;;;;;5115680;28;20089;-76
2022/01/29 01:21:27;;;;;;;30.00;9.10;;;;;;;;;;5115514;28;20119;-76
2022/01/29 01:23:53;;;;;;;35.53;8.65;;;;;;;;;;5115910;28;20039;-75
2022/01/29 01:26:19;;;;;;;34.53;8.70;;;;;;;;;;5115598;28;20476;-75
2022/01/29 01:28:45;;;;;;;37.60;9.43;;;;;;;;;;5115490;28;20043;-75
2022/01/29 01:31:12;;;;;;;39.15;9.43;;;;;;;;;;5115630;28;20043;-75
2022/01/29 01:33:38;;;;;;;40.13;10.10;;;;;;;;;;5098436;28;20042;-75
2022/01/29 01:36:06;;;;;;;27.52;8.45;;;8.40;99.90;;;;;;5098314;28;20042;-75
2022/01/29 01:41:08;;;;;;;37.70;9.63;;;;;;;;;;5115328;28;20055;-76
2022/01/29 01:43:34;;;;;;;31.83;10.40;;;;;;;;;;5115285;28;20488;-76
2022/01/29 01:46:01;;;;;;;34.50;10.95;;;;;;;;;;5115251;28;20637;-76
2022/01/29 01:48:27;;;;;;;32.05;9.82;;;;;;;;;;5098291;28;20070;-76
2022/01/29 01:50:53;;;;;;;43.20;11.20;;;;;;;;;;5115266;28;20122;-75
2022/01/29 01:53:19;;;;;;;34.42;10.32;;;;;;;;;;5114946;28;20036;-76
2022/01/29 01:55:45;;;;;;;37.70;12.20;;;;;;;;;;5114815;28;20365;-76
2022/01/29 01:58:11;;;;;;;35.88;11.38;;;;;;;;;;5115116;28;20388;-76
2022/01/29 02:00:37;;;;;;;44.33;11.20;;;;;;;;;;5098184;28;20375;-75
2022/01/29 02:03:03;;;;;;;42.28;10.43;;;;;;;;;;5114803;28;20096;-76
2022/01/29 02:05:29;;;;;;;42.40;13.05;;;;;;;;;;5114908;28;20441;-75
2022/01/29 02:07:55;;;;;;;43.28;11.90;;;;;;;;;;5114842;28;20050;-75
2022/01/29 02:10:24;;;;;;;38.88;10.23;;;;;;;;;;5115006;28;21089;-75
2022/01/29 02:12:50;;;;;;;37.10;10.85;;;;;;;;;;5098324;28;20097;-75
2022/01/29 02:15:18;;;;;;;39.72;10.77;;;7.90;99.90;;;;;;5114551;28;20039;-76
2022/01/29 02:17:48;;;;;;;38.58;10.98;;;;;;;;;;5097649;28;20049;-75
2022/01/29 02:20:16;;;;;;;46.35;11.18;;;8.00;99.90;;;;;;5114756;28;20032;-75
2022/01/29 02:22:43;;;;;;;34.22;11.55;;;8.00;99.90;;;;;;5114723;28;20108;-75
2022/01/29 02:25:32;;;;;;;45.72;11.25;;;7.30;99.90;;;;;;5114437;28;20114;-75
2022/01/29 02:28:00;;;;;;;39.92;10.85;;;8.20;99.90;;;;;;5114282;28;20050;-76
2022/01/29 02:30:29;;;;;;;42.58;11.13;;;;;;;;;;5114436;28;20396;-75
2022/01/29 02:32:57;;;;;;;39.72;12.15;;;;;;;;;;5097197;28;20510;-75
2022/01/29 02:35:23;;;;;;;38.35;10.15;;;;;;;;;;5113883;28;20122;-75
2022/01/29 02:37:51;;;;;;;46.22;11.65;;;;;;;;;;5114258;28;20035;-75
2022/01/29 02:40:22;;;;;;;36.75;12.02;;;7.90;99.90;;;;;;5114033;28;20040;-75
2022/01/29 02:42:51;;;;;;;54.45;13.63;;;8.00;99.90;;;;;;5097616;28;20061;-75
2022/01/29 02:45:17;;;;;;;39.80;11.80;;;;;;;;;;5113794;28;20488;-75
2022/01/29 02:47:43;;;;;;;36.42;12.05;;;8.20;99.90;;;;;;5113743;28;20055;-75
2022/01/29 02:50:09;;;;;;;29.08;11.05;;;;;;;;;;5113822;28;20059;-75
2022/01/29 02:52:35;;;;;;;45.15;11.70;;;7.90;99.90;;;;;;5113896;28;20069;-75
2022/01/29 02:55:02;;;;;;;42.83;12.05;;;;;;;;;;5113838;28;20043;-76
2022/01/29 02:57:28;;;;;;;46.00;11.40;;;7.90;99.90;;;;;;5096900;28;20040;-76
2022/01/29 03:00:00;;;;;;;48.20;12.35;;;;;;;;;;5113611;28;20047;-76
2022/01/29 03:02:28;;;;;;;50.60;12.63;;;8.40;99.90;;;;;;5113525;28;20040;-76
2022/01/29 03:04:56;;;;;;;44.60;12.15;;;8.30;99.90;;;;;;5113552;28;20039;-76
2022/01/29 03:07:22;;;;;;;45.45;11.95;;;8.10;99.90;;;;;;5112975;28;20046;-75
2022/01/29 03:09:48;;;;;;;48.33;12.48;;;;;;;;;;5113515;28;20131;-76
2022/01/29 03:12:14;;;;;;;46.00;11.48;;;8.10;99.90;;;;;;5113921;28;20395;-75
2022/01/29 03:14:40;;;;;;;41.03;12.23;;;;;;;;;;5113330;28;20039;-75
2022/01/29 03:17:06;;;;;;;40.22;11.77;;;;;;;;;;5113361;28;20044;-75
2022/01/29 03:19:32;;;;;;;47.28;13.00;;;;;;;;;;5113424;28;20039;-76
2022/01/29 03:21:58;;;;;;;44.25;12.80;;;;;;;;;;5113273;28;20094;-76
2022/01/29 03:24:25;;;;;;;32.20;12.65;;;;;;;;;;5113196;28;20169;-76
2022/01/29 03:26:51;;;;;;;43.45;13.70;;;;;;;;;;5113155;28;20043;-75
2022/01/29 03:29:17;;;;;;;52.95;14.00;;;;;;;;;;5113255;28;20091;-75
2022/01/29 03:31:43;;;;;;;37.92;13.85;;;;;;;;;;5113035;28;20055;-75
2022/01/29 03:34:09;;;;;;;41.60;13.50;;;;;;;;;;5112921;28;20487;-75
2022/01/29 03:36:35;;;;;;;41.35;13.43;;;;;;;;;;5113263;28;20035;-75
2022/01/29 03:39:01;;;;;;;44.20;13.13;;;;;;;;;;5113041;28;20123;-76
2022/01/29 03:41:29;;;;;;;49.70;14.98;;;;;;;;;;5096015;28;20052;-75
2022/01/29 03:43:58;;;;;;;45.90;15.02;;;;;;;;;;5096158;28;20679;-76
2022/01/29 03:46:23;;;;;;;43.65;14.25;;;8.50;99.90;;;;;;5112938;28;20066;-75
2022/01/29 03:48:50;;;;;;;37.85;13.85;;;;;;;;;;5112782;28;20043;-76
2022/01/29 03:51:16;;;;;;;38.55;13.52;;;;;;;;;;5112816;28;20044;-75
2022/01/29 03:53:42;;;;;;;49.85;15.52;;;;;;;;;;5095656;28;20518;-76
2022/01/29 03:56:08;;;;;;;41.08;15.68;;;;;;;;;;5112928;28;20112;-75
2022/01/29 03:58:34;;;;;;;44.05;14.00;;;;;;;;;;5112763;28;20044;-76
2022/01/29 04:01:00;;;;;;;40.45;14.27;;;;;;;;;;5112661;28;20040;-76
2022/01/29 04:03:26;;;;;;;39.08;14.15;;;;;;;;;;5078990;28;20070;-76
2022/01/29 04:05:52;;;;;;;46.70;15.57;;;;;;;;;;5112665;28;20035;-76
2022/01/29 04:08:18;;;;;;;39.20;14.52;;;8.40;99.90;;;;;;5096168;28;20089;-76
2022/01/29 04:10:46;;;;;;;38.80;14.50;;;;;;;;;;5112609;28;20043;-75
2022/01/29 04:13:14;;;;;;;35.53;13.55;;;;;;;;;;5079441;28;20566;-75
2022/01/29 04:15:40;;;;;;;44.95;15.35;;;;;;;;;;5112475;28;20040;-75
2022/01/29 04:18:06;;;;;;;44.65;15.88;;;;;;;;;;5096714;28;20031;-76
2022/01/29 04:20:32;;;;;;;42.90;13.57;;;;;;;;;;5099791;28;20039;-75
2022/01/29 04:22:58;;;;;;;37.88;15.13;;;;;;;;;;5116681;28;20122;-76
2022/01/29 04:25:24;;;;;;;39.28;15.52;;;9.00;99.90;;;;;;5116815;28;20390;-75
2022/01/29 04:27:50;;;;;;;43.05;14.07;;;;;;;;;;5116898;28;20051;-76
2022/01/29 04:30:40;;;;;;;47.72;15.20;;;;;;;;;;5116552;28;20556;-75
2022/01/29 04:35:38;;;;;;;39.47;14.07;;;;;;;;;;5116344;28;20044;-76
2022/01/29 04:38:04;;;;;;;45.15;16.25;;;;;;;;;;5099693;28;20313;-76
2022/01/29 04:40:30;;;;;;;47.03;16.20;;;;;;;;;;5116558;28;20040;-75
2022/01/29 04:42:56;;;;;;;40.45;14.15;;;;;;;;;;5116656;28;20041;-75
2022/01/29 04:45:23;;;;;;;41.22;15.30;;;;;;;;;;5099811;28;20131;-76
2022/01/29 04:47:49;;;;;;;38.83;14.82;;;;;;;;;;5116141;28;20064;-76
2022/01/29 04:50:14;;;;;;;40.60;14.43;;;8.30;99.90;;;;;;5116572;28;20048;-75
2022/01/29 04:52:40;;;;;;;48.80;14.38;;;;;;;;;;5116472;28;20457;-75
2022/01/29 04:55:07;;;;;;;34.42;14.93;;;;;;;;;;5116105;28;20483;-75
2022/01/29 04:57:33;;;;;;;42.90;15.30;;;;;;;;;;5099345;28;20392;-75
2022/01/29 04:59:59;;;;;;;44.88;15.43;;;8.50;99.90;;;;;;5099442;28;20039;-76
2022/01/29 05:02:25;;;;;;;43.65;15.63;;;9.00;99.90;;;;;;5116032;28;20555;-75
2022/01/29 05:04:51;;;;;;;43.00;16.27;;;;;;;;;;5115797;28;20050;-76
2022/01/29 05:07:17;;;;;;;40.85;15.23;;;;;;;;;;5116005;28;20051;-75
2022/01/29 05:09:43;;;;;;;41.70;15.55;;;;;;;;;;5115887;28;20039;-76
2022/01/29 05:12:10;;;;;;;44.28;16.40;;;8.50;99.90;;;;;;5098890;28;20040;-75
2022/01/29 05:14:45;;;;;;;32.80;14.80;;;;;;;;;;5115843;28;20108;-76
2022/01/29 05:28:11;;;;;;;36.35;14.73;;;;;;;;;;5100913;28;20051;-75
2022/01/29 05:30:37;;;;;;;40.58;14.40;;;;;;;;;;5114883;28;20039;-76
2022/01/29 05:33:03;;;;;;;38.25;14.50;;;;;;;;;;5115435;28;20123;-76
2022/01/29 05:35:29;;;;;;;36.10;14.00;;;;;;;;;;5115625;28;20047;-75
2022/01/29 05:37:56;;;;;;;50.00;17.42;;;;;;;;;;5115448;28;20036;-76
2022/01/29 05:40:22;;;;;;;41.45;15.48;;;;;;;;;;5115253;28;20243;-76
2022/01/29 05:42:48;;;;;;;40.55;15.20;;;;;;;;;;5115198;28;20043;-76
2022/01/29 05:45:14;;;;;;;37.03;15.57;;;;;;;;;;5115149;28;20050;-76
2022/01/29 05:47:40;;;;;;;37.25;13.40;;;;;;;;;;5115059;28;20457;-76
2022/01/29 05:50:06;;;;;;;32.67;14.32;;;8.90;99.90;;;;;;5115073;28;20043;-76
2022/01/29 05:52:32;;;;;;;43.42;15.05;;;;;;;;;;5115412;28;20376;-76
2022/01/29 05:54:58;;;;;;;41.88;15.05;;;8.30;99.90;;;;;;5115024;28;20051;-76
2022/01/29 05:57:24;;;;;;;44.33;15.77;;;;;;;;;;5115058;28;20388;-76
2022/01/29 05:59:50;;;;;;;41.28;15.38;;;;;;;;;;5114950;28;20039;-75
2022/01/29 06:02:16;;;;;;;40.60;14.98;;;;;;;;;;5115196;28;20511;-76
2022/01/29 06:04:42;;;;;;;37.22;14.35;;;;;;;;;;5098003;28;20104;-75
2022/01/29 06:07:08;;;;;;;39.88;13.93;;;;;;;;;;5114937;28;20126;-76
2022/01/29 06:09:34;;;;;;;35.17;15.32;;;;;;;;;;5114662;28;20039;-75
2022/01/29 06:12:00;;;;;;;33.95;14.45;;;;;;;;;;5114671;28;20077;-76
2022/01/29 06:14:26;;;;;;;34.30;14.93;;;;;;;;;;5114504;28;20044;-76
2022/01/29 06:16:53;;;;;;;35.67;14.23;;;;;;;;;;5098036;28;20032;-76
2022/01/29 06:19:19;;;;;;;37.08;14.52;;;;;;;;;;5114775;28;20079;-75
2022/01/29 06:21:45;;;;;;;37.33;15.13;;;;;;;;;;5114413;28;20036;-75
2022/01/29 06:24:11;;;;;;;44.15;14.10;;;;;;;;;;5114653;28;20387;-76
2022/01/29 06:26:37;;;;;;;33.90;14.45;;;;;;;;;;5114525;28;20039;-76
2022/01/29 06:29:04;;;;;;;43.47;14.10;;;;;;;;;;5114835;28;20047;-76
2022/01/29 06:31:30;;;;;;;34.13;14.60;;;;;;;;;;5114228;28;20043;-75
2022/01/29 06:33:56;;;;;;;33.30;13.27;;;;;;;;;;5114395;28;20112;-75
2022/01/29 06:36:22;;;;;;;35.05;15.35;;;;;;;;;;5114516;28;20036;-75
2022/01/29 06:38:48;;;;;;;36.55;14.13;;;;;;;;;;5097323;28;20071;-75
2022/01/29 06:41:14;;;;;;;31.42;13.13;;;;;;;;;;5113190;28;20035;-75
2022/01/29 06:43:40;;;;;;;39.92;13.93;;;;;;;;;;5097225;28;20046;-76
2022/01/29 06:46:06;;;;;;;28.92;12.23;;;;;;;;;;5113795;28;20048;-75
2022/01/29 06:48:33;;;;;;;27.77;12.35;;;;;;;;;;5113812;28;20044;-76
2022/01/29 06:50:59;;;;;;;33.65;13.85;;;;;;;;;;5113737;28;20122;-75
2022/01/29 06:53:25;;;;;;;33.20;13.50;;;;;;;;;;5113827;28;20035;-75
2022/01/29 06:55:51;;;;;;;29.13;12.93;;;;;;;;;;5113751;28;20047;-76
2022/01/29 06:58:17;;;;;;;34.70;11.80;;;;;;;;;;5096907;28;20042;-75
2022/01/29 07:00:43;;;;;;;37.38;11.43;;;;;;;;;;5097077;28;20396;-75
2022/01/29 07:03:09;;;;;;;34.50;11.30;;;;;;;;;;5080217;28;20116;-75
2022/01/29 07:05:35;;;;;;;30.55;11.77;;;;;;;;;;5096756;28;20035;-75
2022/01/29 07:08:01;;;;;;;31.17;11.68;;;;;;;;;;5113499;28;20130;-75
2022/01/29 07:10:27;;;;;;;34.17;11.95;;;;;;;;;;5096565;28;20051;-77
2022/01/29 07:12:53;;;;;;;33.30;10.65;;;;;;;;;;5113546;28;20035;-76
2022/01/29 07:15:19;;;;;;;27.58;10.20;;;;;;;;;;5113382;28;20040;-74
2022/01/29 07:17:45;;;;;;;37.85;10.65;;;;;;;;;;5113313;28;20487;-75
2022/01/29 07:20:11;;;;;;;30.02;10.82;;;8.70;99.90;;;;;;5096710;28;20380;-74
2022/01/29 07:22:39;;;;;;;32.13;11.93;;;8.70;99.90;;;;;;5096316;28;20045;-76
2022/01/29 07:25:05;;;;;;;35.70;11.55;;;;;;;;;;5113230;28;20047;-75
2022/01/29 07:27:31;;;;;;;26.17;10.30;;;8.30;99.90;;;;;;5113329;28;20047;-76
2022/01/29 07:29:57;;;;;;;29.58;9.88;;;;;;;;;;5113141;28;20407;-75
2022/01/29 07:32:23;;;;;;;31.70;10.10;;;9.10;99.90;;;;;;5113026;28;20039;-75
2022/01/29 07:34:49;;;;;;;29.80;10.48;;;;;;;;;;5113013;28;20046;-75
2022/01/29 07:37:15;;;;;;;29.42;10.02;;;;;;;;;;5096195;28;20551;-75
2022/01/29 07:39:41;;;;;;;39.15;11.27;;;;;;;;;;5096284;28;20054;-75
2022/01/29 07:42:07;;;;;;;34.13;9.20;;;9.10;99.90;;;;;;5112917;28;20103;-76
2022/01/29 07:44:33;;;;;;;27.15;9.60;;;8.90;99.90;;;;;;5112839;28;20218;-75
2022/01/29 07:46:59;;;;;;;29.50;10.75;;;;;;;;;;5112584;28;20062;-75
2022/01/29 07:49:25;;;;;;;29.33;8.65;;;;;;;;;;5113175;28;20046;-75
2022/01/29 07:51:51;;;;;;;29.02;9.13;;;9.40;99.90;;;;;;5095601;28;20055;-75
2022/01/29 07:54:17;;;;;;;29.38;9.73;;;;;;;;;;5079106;28;20031;-75
2022/01/29 07:56:43;;;;;;;25.27;8.88;;;;;;;;;;5095809;28;20075;-76
2022/01/29 07:59:09;;;;;;;25.92;9.95;;;9.10;99.90;;;;;;5112680;28;20044;-76
2022/01/29 08:01:35;;;;;;;29.27;9.18;;;;;;;;;;5112610;28;20081;-75
2022/01/29 08:04:01;;;;;;;19.88;8.38;;;;;;;;;;5112412;28;20405;-75
2022/01/29 08:06:29;;;;;;;20.90;8.40;;;;;;;;;;5112657;28;20043;-75
2022/01/29 08:08:56;;;;;;;29.92;8.98;;;;;;;;;;5112470;28;20051;-75
2022/01/29 08:11:22;;;;;;;22.13;8.43;;;;;;;;;;5095916;28;20044;-75
2022/01/29 08:13:47;;;;;;;28.83;8.60;;;9.20;99.90;;;;;;5112385;28;20038;-75
2022/01/29 08:16:14;;;;;;;23.95;8.00;;;8.90;99.90;;;;;;5095767;28;20036;-75
2022/01/29 08:18:45;;;;;;;31.58;8.23;;;;;;;;;;5112604;28;20032;-75
2022/01/29 08:21:12;;;;;;;26.20;7.35;;;8.70;99.90;;;;;;5112923;28;20447;-75
2022/01/29 08:23:38;;;;;;;21.95;7.35;;;;;;;;;;5112773;28;20047;-75
2022/01/29 08:26:04;;;;;;;28.42;8.48;;;;;;;;;;5112501;28;20502;-75
2022/01/29 08:28:30;;;;;;;24.25;6.65;;;;;;;;;;5095335;28;20046;-75
2022/01/29 08:30:56;;;;;;;21.08;6.93;;;;;;;;;;5112491;28;20035;-75
2022/01/29 08:33:23;;;;;;;27.42;7.97;;;;;;;;;;5095285;28;20496;-75
2022/01/29 08:35:49;;;;;;;24.15;7.30;;;9.60;99.90;;;;;;5112169;28;20438;-75
2022/01/29 08:38:15;;;;;;;24.20;7.72;;;;;;;;;;5112247;28;20036;-75
2022/01/29 08:40:41;;;;;;;22.00;7.28;;;;;;;;;;5112446;28;20368;-75
2022/01/29 08:43:07;;;;;;;23.17;7.70;;;;;;;;;;5095208;28;20042;-75
2022/01/29 08:45:33;;;;;;;17.02;6.32;;;9.20;99.90;;;;;;5112487;28;20039;-75
2022/01/29 08:47:59;;;;;;;22.02;6.93;;;;;;;;;;5095055;28;20094;-75
2022/01/29 08:50:26;;;;;;;20.52;7.18;;;9.10;99.90;;;;;;5112212;28;20488;-75
2022/01/29 08:52:52;;;;;;;20.98;6.97;;;;;;;;;;5112395;28;20425;-75
2022/01/29 08:55:18;;;;;;;21.63;7.32;;;;;;;;;;5112042;28;20047;-75
2022/01/29 08:57:45;;;;;;;17.75;6.20;;;;;;;;;;5112105;28;20040;-75
2022/01/29 09:00:13;;;;;;;19.45;6.70;;;8.40;99.90;;;;;;5112329;28;20044;-75
2022/01/29 09:02:40;;;;;;;19.90;7.03;;;;;;;;;;5112237;28;20088;-75
2022/01/29 09:05:06;;;;;;;25.38;8.27;;;8.60;99.90;;;;;;5097747;28;20055;-75
2022/01/29 09:07:32;;;;;;;21.13;6.22;;;;;;;;;;5116177;28;20451;-75
2022/01/29 09:09:59;;;;;;;18.30;6.38;;;;;;;;;;5115897;28;20085;-73
2022/01/29 09:12:24;;;;;;;20.50;6.18;;;10.00;99.90;;;;;;5115988;28;20071;-75
2022/01/29 09:14:50;;;;;;;21.58;6.32;;;9.60;99.90;;;;;;5098744;28;20128;-75
2022/01/29 09:17:16;;;;;;;22.15;5.82;;;;;;;;;;5081801;28;20036;-73
2022/01/29 09:19:42;;;;;;;14.50;5.28;;;;;;;;;;5115620;28;20042;-73
2022/01/29 09:22:08;;;;;;;23.83;5.93;;;;;;;;;;5115465;28;20452;-73
2022/01/29 09:24:35;;;;;;;18.50;5.78;;;;;;;;;;5115502;28;20047;-73
2022/01/29 09:27:01;;;;;;;15.43;4.50;;;;;;;;;;5098563;28;20071;-74
2022/01/29 09:29:27;;;;;;;24.17;5.35;;;;;;;;;;5115375;28;20126;-73
2022/01/29 09:31:53;;;;;;;24.35;5.40;;;;;;;;;;5115356;28;20407;-73
2022/01/29 09:34:19;;;;;;;23.05;5.00;;;10.10;99.90;;;;;;5098416;28;20392;-73
2022/01/29 09:36:44;;;;;;;18.73;5.20;;;9.40;99.90;;;;;;5098388;28;20039;-74
2022/01/29 09:39:11;;;;;;;19.20;4.40;;;9.00;99.90;;;;;;5115279;28;20039;-73
2022/01/29 09:41:38;;;;;;;21.08;4.30;;;;;;;;;;5098350;28;20035;-73
2022/01/29 09:44:04;;;;;;;22.00;5.68;;;;;;;;;;5115098;28;20071;-73
2022/01/29 09:46:31;;;;;;;20.63;5.13;;;10.30;99.90;;;;;;5115393;28;20078;-73
2022/01/29 09:48:57;;;;;;;13.43;4.18;;;;;;;;;;5098042;28;20046;-73
2022/01/29 09:51:23;;;;;;;13.90;3.45;;;;;;;;;;5115249;28;20387;-73
2022/01/29 09:53:49;;;;;;;17.65;3.67;;;10.30;99.90;;;;;;5097816;28;20039;-74
2022/01/29 09:56:15;;;;;;;18.02;4.10;;;;;;;;;;5114782;28;20039;-72
2022/01/29 09:58:42;;;;;;;18.33;3.67;;;9.60;99.90;;;;;;5114722;28;20139;-74
2022/01/29 10:01:08;;;;;;;25.50;4.78;;;;;;;;;;5115080;28;20031;-73
2022/01/29 10:03:35;;;;;;;24.08;4.95;;;;;;;;;;5114734;28;20036;-73
2022/01/29 10:06:01;;;;;;;19.80;4.50;;;;;;;;;;5098216;28;20360;-73
2022/01/29 10:08:28;;;;;;;19.13;3.90;;;9.70;99.90;;;;;;5115037;28;20074;-73
2022/01/29 10:10:59;;;;;;;17.25;3.85;;;9.70;99.90;;;;;;5114660;28;20050;-73
2022/01/29 10:13:36;;;;;;;22.17;3.85;;;10.40;99.90;;;;;;5114604;28;20078;-74
2022/01/29 10:16:18;;;;;;;23.50;4.13;;;9.60;99.90;;;;;;5114551;28;20032;-73
2022/01/29 10:18:47;;;;;;;24.42;4.38;;;9.80;99.90;;;;;;5114842;28;20039;-73
2022/01/29 10:21:21;;;;;;;18.83;3.45;;;9.10;99.90;;;;;;5114504;28;20067;-73
2022/01/29 10:23:48;;;;;;;17.85;3.78;;;10.20;99.90;;;;;;5114354;28;20048;-73
2022/01/29 10:26:50;;;;;;;20.50;3.63;;;10.10;99.90;;;;;;5114461;28;20044;-74
2022/01/29 10:29:19;;;;;;;22.60;3.93;;;9.70;99.90;;;;;;5036600;28;20083;-74
2022/01/29 10:31:51;;;;;;;17.83;3.40;;;9.70;99.90;;;;;;5086991;28;20051;-74
2022/01/29 10:34:24;;;;;;;22.55;3.97;;;9.70;99.90;;;;;;5114145;28;20039;-74
2022/01/29 10:37:18;;;;;;;23.75;4.05;;;9.00;99.90;;;;;;5114198;28;20085;-74
2022/01/29 10:39:56;;;;;;;24.45;4.10;;;9.90;99.90;;;;;;5114210;28;20051;-74
2022/01/29 10:42:24;;;;;;;24.83;4.07;;;9.90;99.90;;;;;;5114006;28;20104;-74
2022/01/29 10:45:01;;;;;;;23.60;4.20;;;9.40;99.90;;;;;;5114287;28;20043;-74
2022/01/29 10:47:27;;;;;;;23.90;3.78;;;10.60;99.90;;;;;;5114040;28;20507;-75
2022/01/29 10:49:57;;;;;;;20.67;3.85;;;10.00;99.90;;;;;;5114096;28;20052;-74
2022/01/29 10:52:30;;;;;;;21.77;3.63;;;9.80;99.90;;;;;;5113935;28;20056;-74
2022/01/29 10:55:02;;;;;;;20.00;3.88;;;9.70;99.90;;;;;;5113697;28;20130;-74
2022/01/29 10:57:47;;;;;;;24.03;3.50;;;9.70;99.90;;;;;;5114049;28;20100;-76
2022/01/29 11:00:22;;;;;;;13.68;2.85;;;9.80;99.90;;;;;;5114161;28;20032;-76
2022/01/29 11:02:48;;;;;;;15.10;3.08;;;;;;;;;;5096762;28;20036;-73
2022/01/29 11:05:15;;;;;;;14.32;2.90;;;;;;;;;;5113598;28;20051;-76
2022/01/29 11:07:45;;;;;;;21.63;3.63;;;9.80;99.90;;;;;;5113551;28;20036;-74
2022/01/29 11:10:11;;;;;;;14.25;3.30;;;9.60;99.90;;;;;;5113535;28;20050;-74
2022/01/29 11:12:42;;;;;;;15.75;4.32;;;10.60;99.90;;;;;;5113413;28;20051;-74
2022/01/29 11:15:09;;;;;;;23.00;3.72;;;10.70;99.90;;;;;;5113421;28;20131;-74
2022/01/29 11:17:35;;;;;;;20.40;4.78;;;;;;;;;;5113366;28;20067;-74
2022/01/29 11:20:01;;;;;;;18.60;3.97;;;;;;;;;;5113228;28;20046;-74
2022/01/29 11:22:38;;;;;;;18.05;3.95;;;9.20;99.90;;;;;;5113227;28;20039;-74
2022/01/29 11:25:07;;;;;;;16.77;3.47;;;10.80;99.90;;;;;;5113210;28;20044;-74
2022/01/29 11:27:37;;;;;;;21.58;3.65;;;10.20;99.90;;;;;;5112895;28;20079;-74
2022/01/29 11:30:11;;;;;;;16.45;3.17;;;10.70;99.90;;;;;;5113386;28;20426;-74
2022/01/29 11:32:44;;;;;;;20.55;2.92;;;10.50;99.90;;;;;;5096365;28;20086;-74
2022/01/29 11:35:21;;;;;;;17.50;3.67;;;9.50;99.90;;;;;;5078934;28;20083;-74
2022/01/29 11:38:01;;;;;;;14.02;3.10;;;10.60;99.90;;;;;;5096010;28;20063;-74
2022/01/29 11:40:27;;;;;;;25.48;3.38;;;;;;;;;;5096088;28;20039;-73
2022/01/29 11:43:04;;;;;;;20.58;3.13;;;10.30;99.90;;;;;;5113127;28;20043;-74
2022/01/29 11:45:52;;;;;;;13.75;4.05;;;9.80;99.90;;;;;;5113039;28;20043;-74
2022/01/29 11:48:24;;;;;;;18.73;3.38;;;11.00;99.90;;;;;;5112543;28;20055;-74
2022/01/29 11:50:50;;;;;;;15.75;2.97;;;;;;;;;;5096017;28;20050;-74
2022/01/29 11:53:18;;;;;;;18.23;3.50;;;11.00;99.90;;;;;;5112775;28;20043;-74
2022/01/29 11:55:47;;;;;;;18.80;3.17;;;10.50;99.90;;;;;;5112928;28;20075;-74
2022/01/29 11:58:20;;;;;;;15.02;3.85;;;10.30;99.90;;;;;;5112766;28;20070;-74
2022/01/29 12:00:51;;;;;;;16.23;3.33;;;10.20;99.90;;;;;;5112701;28;20572;-74
2022/01/29 12:03:43;;;;;;;19.42;3.40;;;10.50;99.90;;;;;;5095694;28;20056;-74
2022/01/29 12:09:09;;;;;;;25.25;3.03;;;10.70;99.90;;;;;;5112791;28;20062;-74
2022/01/29 12:11:41;;;;;;;17.15;3.28;;;10.50;99.90;;;;;;5112633;28;20579;-74
2022/01/29 12:14:12;;;;;;;14.52;3.55;;;10.80;99.90;;;;;;5112546;28;20040;-74
2022/01/29 12:16:58;;;;;;;22.47;4.03;;;10.70;99.90;;;;;;5112299;28;20036;-74
2022/01/29 12:19:46;;;;;;;26.73;3.47;;;10.00;99.90;;;;;;5112379;28;20773;-74
2022/01/29 12:22:19;;;;;;;17.17;4.22;;;10.30;99.90;;;;;;5112409;28;20043;-74
2022/01/29 12:25:06;;;;;;;15.90;3.20;;;10.60;99.90;;;;;;5112259;28;20043;-73
2022/01/29 12:27:53;;;;;;;29.15;4.50;;;10.50;99.90;;;;;;5112373;28;20043;-74
2022/01/29 12:30:31;;;;;;;24.33;3.60;;;9.80;99.90;;;;;;5108053;28;20043;-71
2022/01/29 12:33:03;;;;;;;24.67;3.35;;;;;;;;;;5092079;28;20043;-78
2022/01/29 12:35:40;;;;;;;24.33;3.00;;;9.90;99.90;;;;;;5076027;28;20101;-73
2022/01/29 12:38:26;;;;;;;25.92;3.55;;;9.60;99.90;;;;;;5092065;28;20048;-74
2022/01/29 12:40:59;;;;;;;22.83;4.25;;;10.40;99.90;;;;;;5099077;28;20122;-74
2022/01/29 12:43:38;;;;;;;26.05;3.55;;;10.40;99.90;;;;;;5116259;28;20533;-73
2022/01/29 12:46:10;;;;;;;20.48;3.65;;;10.40;99.90;;;;;;5117679;28;20047;-74
2022/01/29 12:48:38;;;;;;;21.17;3.72;;;;;;;;;;5117345;28;20067;-73
2022/01/29 12:51:09;;;;;;;26.33;4.20;;;10.50;99.90;;;;;;5110934;28;20131;-72
2022/01/29 12:53:35;;;;;;;23.90;3.53;;;;;;;;;;5095876;28;20345;-72
2022/01/29 12:56:06;;;;;;;22.20;3.90;;;10.30;99.90;;;;;;5095211;28;20450;-73
2022/01/29 12:58:34;;;;;;;22.42;3.80;;;10.30;99.90;;;;;;5095710;28;20035;-74
2022/01/29 13:01:15;;;;;;;20.63;4.03;;;10.70;99.90;;;;;;5096617;28;20040;-77
2022/01/29 13:03:41;;;;;;;17.30;3.25;;;;;;;;;;5089684;28;20488;-79
2022/01/29 13:06:13;;;;;;;24.88;3.92;;;10.40;99.90;;;;;;5116058;28;20039;-77
2022/01/29 13:08:40;;;;;;;19.80;3.55;;;10.30;99.90;;;;;;5114665;28;20047;-77
2022/01/29 13:11:28;;;;;;;22.40;3.55;;;10.50;99.90;;;;;;5092089;28;20079;-77
2022/01/29 13:13:54;;;;;;;19.48;2.88;;;;;;;;;;5104838;28;20044;-77
2022/01/29 13:16:20;;;;;;;17.85;3.00;;;;;;;;;;5115555;28;20068;-77
2022/01/29 13:18:46;;;;;;;21.30;3.40;;;;;;;;;;5115762;28;20116;-77
2022/01/29 13:21:13;;;;;;;18.88;3.47;;;;;;;;;;5113712;28;20044;-76
2022/01/29 13:23:41;;;;;;;21.90;3.28;;;;;;;;;;5091052;28;20572;-77
2022/01/29 13:26:15;;;;;;;15.63;3.33;;;11.50;99.90;;;;;;5095196;28;20043;-77
2022/01/29 13:28:46;;;;;;;19.55;3.22;;;;;;;;;;5096915;28;20040;-77
2022/01/29 13:31:12;;;;;;;18.58;3.10;;;;;;;;;;5115730;28;20036;-77
2022/01/29 13:33:39;;;;;;;21.38;3.00;;;;;;;;;;5106655;28;20120;-77
2022/01/29 13:36:05;;;;;;;16.50;3.25;;;;;;;;;;5094880;28;20040;-77
2022/01/29 13:38:39;;;;;;;22.02;3.25;;;;;;;;;;5111675;28;20166;-77
2022/01/29 13:41:06;;;;;;;18.73;3.10;;;;;;;;;;5115441;28;20048;-77
2022/01/29 13:43:37;;;;;;;21.10;3.53;;;10.70;99.90;;;;;;5088330;28;20039;-77
2022/01/29 13:46:06;;;;;;;21.23;3.45;;;11.20;99.90;;;;;;5078777;28;20035;-77
2022/01/29 13:48:52;;;;;;;20.70;3.17;;;10.80;99.90;;;;;;5108796;28;20503;-77
2022/01/29 13:51:34;;;;;;;23.00;3.92;;;10.70;99.90;;;;;;5077695;28;20392;-77
2022/01/29 13:54:03;;;;;;;22.33;2.65;;;11.30;99.90;;;;;;5095299;28;20040;-76
2022/01/29 13:56:30;;;;;;;23.90;3.10;;;11.00;99.90;;;;;;5093249;28;20039;-77
2022/01/29 13:59:04;;;;;;;19.63;3.15;;;10.80;99.90;;;;;;5077246;28;20040;-77
2022/01/29 14:01:58;;;;;;;14.88;2.67;;;10.90;99.90;;;;;;5094313;28;20480;-76
2022/01/29 14:04:32;;;;;;;14.55;3.40;;;;;;;;;;5096053;28;20040;-77
2022/01/29 14:07:11;;;;;;;26.58;3.22;;;10.90;99.90;;;;;;5093838;28;20044;-76